createdAt,value
2017-10-24T00:00:01.708Z,98122.09
2017-10-24T00:02:29.247Z,98125.02
2017-10-24T00:04:56.818Z,98128.04
2017-10-24T00:07:24.575Z,98123.90
2017-10-24T00:09:52.128Z,98133.04
2017-10-24T00:12:19.691Z,98135.78
2017-10-24T00:14:47.245Z,98135.09
2017-10-24T00:17:14.749Z,98138.08
2017-10-24T00:19:42.269Z,98138.25
2017-10-24T00:22:09.819Z,98130.23
2017-10-24T00:24:37.380Z,98134.77
2017-10-24T00:27:04.940Z,98137.05
2017-10-24T00:29:32.683Z,98137.67
2017-10-24T00:32:00.202Z,98138.14
2017-10-24T00:34:27.763Z,98139.52
2017-10-24T00:36:55.396Z,98143.92
2017-10-24T00:39:22.928Z,98146.63
2017-10-24T00:41:50.444Z,98146.09
2017-10-24T00:44:18.171Z,98144.06
2017-10-24T00:46:45.718Z,98139.88
2017-10-24T00:49:13.277Z,98147.16
2017-10-24T00:51:41.179Z,98150.84
2017-10-24T00:54:08.702Z,98147.84
2017-10-24T00:56:36.215Z,98153.02
2017-10-24T00:59:03.903Z,98151.48
2017-10-24T01:01:31.424Z,98146.95
2017-10-24T01:03:58.943Z,98143.31
2017-10-24T01:06:26.705Z,98152.27
2017-10-24T01:08:54.223Z,98147.00
2017-10-24T01:11:21.762Z,98145.64
2017-10-24T01:13:49.482Z,98144.22
2017-10-24T01:16:16.991Z,98143.66
2017-10-24T01:18:44.507Z,98146.71
2017-10-24T01:21:12.263Z,98141.38
2017-10-24T01:23:39.822Z,98146.50
2017-10-24T01:26:07.381Z,98146.05
2017-10-24T01:28:35.145Z,98152.83
2017-10-24T01:33:29.579Z,98151.16
2017-10-24T01:35:57.312Z,98148.37
2017-10-24T01:38:24.869Z,98147.00
2017-10-24T01:40:52.411Z,98142.30
2017-10-24T01:43:19.978Z,98142.69
2017-10-24T01:45:47.582Z,98143.97
2017-10-24T01:48:15.108Z,98146.45
2017-10-24T01:50:42.869Z,98147.80
2017-10-24T01:53:10.428Z,98152.50
2017-10-24T01:55:37.987Z,98152.61
2017-10-24T01:58:05.751Z,98152.03
2017-10-24T02:00:33.311Z,98156.85
2017-10-24T02:03:00.865Z,98150.27
2017-10-24T02:05:28.414Z,98152.22
2017-10-24T02:07:55.937Z,98151.45
2017-10-24T02:10:23.455Z,98151.66
2017-10-24T02:12:51.310Z,98159.20
2017-10-24T02:15:18.831Z,98158.36
2017-10-24T02:17:46.432Z,98154.15
2017-10-24T02:20:13.975Z,98150.18
2017-10-24T02:22:41.492Z,98157.84
2017-10-24T02:25:09.016Z,98148.67
2017-10-24T02:27:36.766Z,98140.78
2017-10-24T02:30:04.327Z,98142.36
2017-10-24T02:32:31.847Z,98141.02
2017-10-24T02:34:59.631Z,98141.28
2017-10-24T02:37:27.148Z,98152.01
2017-10-24T02:39:54.703Z,98142.61
2017-10-24T02:42:22.347Z,98146.27
2017-10-24T02:44:49.884Z,98144.99
2017-10-24T02:47:17.402Z,98136.23
2017-10-24T02:49:45.188Z,98142.89
2017-10-24T02:52:12.718Z,98143.97
2017-10-24T02:54:40.244Z,98143.31
2017-10-24T02:57:07.992Z,98145.84
2017-10-24T02:59:35.563Z,98145.87
2017-10-24T03:02:03.106Z,98136.29
2017-10-24T03:04:30.662Z,98140.59
2017-10-24T03:06:58.184Z,98140.02
2017-10-24T03:09:25.708Z,98134.95
2017-10-24T03:11:53.444Z,98139.58
2017-10-24T03:14:21.007Z,98134.59
2017-10-24T03:16:48.514Z,98134.92
2017-10-24T03:19:16.121Z,98136.04
2017-10-24T03:21:43.682Z,98143.73
2017-10-24T03:24:11.198Z,98150.69
2017-10-24T03:26:39.091Z,98146.84
2017-10-24T03:29:06.667Z,98138.14
2017-10-24T03:31:34.224Z,98141.89
2017-10-24T03:34:02.004Z,98147.04
2017-10-24T03:36:29.527Z,98148.30
2017-10-24T03:38:57.049Z,98147.44
2017-10-24T03:41:24.972Z,98140.42
2017-10-24T03:43:52.534Z,98147.81
2017-10-24T03:46:20.093Z,98151.20
2017-10-24T03:48:47.659Z,98153.63
2017-10-24T03:51:15.209Z,98161.84
2017-10-24T03:53:42.722Z,98148.63
2017-10-24T03:56:10.519Z,98142.78
2017-10-24T03:58:38.096Z,98149.73
2017-10-24T04:01:05.675Z,98157.72
2017-10-24T04:03:33.702Z,98151.27
2017-10-24T04:06:01.232Z,98146.63
2017-10-24T04:08:28.750Z,98153.58
2017-10-24T04:10:56.688Z,98154.40
2017-10-24T04:13:24.207Z,98157.17
2017-10-24T04:15:51.744Z,98162.80
2017-10-24T04:18:19.472Z,98159.58
2017-10-24T04:20:47.000Z,98155.73
2017-10-24T04:23:14.541Z,98157.75
2017-10-24T04:25:42.346Z,98160.51
2017-10-24T04:28:09.854Z,98156.64
2017-10-24T04:30:37.382Z,98154.80
2017-10-24T04:33:05.127Z,98160.73
2017-10-24T04:35:32.841Z,98160.36
2017-10-24T04:38:00.794Z,98158.38
2017-10-24T04:40:29.160Z,98170.07
2017-10-24T04:42:56.687Z,98168.17
2017-10-24T04:45:24.219Z,98172.77
2017-10-24T04:47:51.779Z,98166.88
2017-10-24T04:50:19.294Z,98167.01
2017-10-24T04:52:47.667Z,98165.22
2017-10-24T04:55:15.224Z,98162.27
2017-10-24T04:57:43.403Z,98162.69
2017-10-24T05:00:10.959Z,98161.38
2017-10-24T05:02:38.740Z,98170.37
2017-10-24T05:05:06.282Z,98168.35
2017-10-24T05:07:34.251Z,98176.08
2017-10-24T05:10:02.017Z,98168.25
2017-10-24T05:12:29.542Z,98174.74
2017-10-24T05:14:57.067Z,98174.19
2017-10-24T05:17:24.998Z,98170.73
2017-10-24T05:19:52.557Z,98177.98
2017-10-24T05:22:20.131Z,98169.45
2017-10-24T05:24:47.781Z,98167.67
2017-10-24T05:27:15.358Z,98169.79
2017-10-24T05:29:42.896Z,98165.66
2017-10-24T05:32:10.839Z,98174.82
2017-10-24T05:34:38.357Z,98166.50
2017-10-24T05:37:05.880Z,98166.48
2017-10-24T05:39:33.448Z,98171.88
2017-10-24T05:42:00.999Z,98171.43
2017-10-24T05:44:28.576Z,98167.08
2017-10-24T05:46:56.142Z,98171.49
2017-10-24T05:49:23.676Z,98171.05
2017-10-24T05:51:51.254Z,98165.45
2017-10-24T05:54:18.979Z,98164.36
2017-10-24T05:56:46.495Z,98162.66
2017-10-24T05:59:14.021Z,98166.02
2017-10-24T06:01:41.578Z,98167.48
2017-10-24T06:04:09.097Z,98171.55
2017-10-24T06:06:36.616Z,98171.82
2017-10-24T06:09:04.461Z,98180.85
2017-10-24T06:11:32.016Z,98176.79
2017-10-24T06:13:59.540Z,98182.38
2017-10-24T06:16:27.148Z,98176.94
2017-10-24T06:18:54.693Z,98180.05
2017-10-24T06:21:22.252Z,98180.13
2017-10-24T06:23:50.016Z,98177.12
2017-10-24T06:26:17.576Z,98181.70
2017-10-24T06:28:45.097Z,98185.70
2017-10-24T06:31:12.983Z,98183.08
2017-10-24T06:33:40.494Z,98184.59
2017-10-24T06:36:08.018Z,98184.70
2017-10-24T06:38:35.867Z,98196.98
2017-10-24T06:41:03.442Z,98203.84
2017-10-24T06:43:31.018Z,98208.74
2017-10-24T06:45:59.072Z,98217.75
2017-10-24T06:48:26.630Z,98218.66
2017-10-24T06:50:54.199Z,98214.51
2017-10-24T06:53:21.863Z,98216.34
2017-10-24T06:55:49.410Z,98217.75
2017-10-24T06:58:16.970Z,98223.61
2017-10-24T07:00:44.815Z,98224.64
2017-10-24T07:03:12.336Z,98228.70
2017-10-24T07:05:39.864Z,98233.11
2017-10-24T07:08:07.595Z,98232.52
2017-10-24T07:10:35.175Z,98223.60
2017-10-24T07:13:02.706Z,98227.28
2017-10-24T07:15:30.496Z,98221.07
2017-10-24T07:17:58.015Z,98222.22
2017-10-24T07:20:25.563Z,98227.66
2017-10-24T07:22:53.494Z,98230.82
2017-10-24T07:25:21.019Z,98238.53
2017-10-24T07:27:48.548Z,98245.08
2017-10-24T07:30:16.412Z,98239.67
2017-10-24T07:32:43.937Z,98244.03
2017-10-24T07:35:11.487Z,98240.61
2017-10-24T07:37:39.063Z,98240.21
2017-10-24T07:40:06.578Z,98249.91
2017-10-24T07:42:34.112Z,98247.87
2017-10-24T07:45:01.922Z,98239.39
2017-10-24T07:47:29.447Z,98242.92
2017-10-24T07:49:56.968Z,98241.94
2017-10-24T07:52:24.547Z,98249.95
2017-10-24T07:54:52.107Z,98245.64
2017-10-24T07:57:19.639Z,98246.63
2017-10-24T07:59:47.203Z,98255.68
2017-10-24T08:02:14.728Z,98247.16
2017-10-24T08:04:42.315Z,98247.45
2017-10-24T08:07:10.061Z,98251.59
2017-10-24T08:09:37.614Z,98249.76
2017-10-24T08:12:05.175Z,98252.48
2017-10-24T08:14:32.919Z,98250.52
2017-10-24T08:17:00.428Z,98249.98
2017-10-24T08:19:27.943Z,98250.70
2017-10-24T08:21:55.513Z,98252.08
2017-10-24T08:24:23.584Z,98256.70
2017-10-24T08:26:51.145Z,98263.34
2017-10-24T08:29:18.716Z,98264.39
2017-10-24T08:31:46.235Z,98257.22
2017-10-24T08:34:13.754Z,98255.82
2017-10-24T08:36:41.603Z,98264.21
2017-10-24T08:39:09.124Z,98270.37
2017-10-24T08:41:36.639Z,98265.84
2017-10-24T08:44:04.466Z,98270.08
2017-10-24T08:46:32.026Z,98273.00
2017-10-24T08:48:59.585Z,98263.13
2017-10-24T08:51:27.759Z,98269.50
2017-10-24T08:53:55.317Z,98264.81
2017-10-24T08:56:23.286Z,98259.62
2017-10-24T08:58:51.048Z,98252.19
2017-10-24T09:01:30.694Z,98260.58
2017-10-24T09:03:58.451Z,98250.83
2017-10-24T09:06:35.845Z,98251.58
2017-10-24T09:12:20.358Z,98266.02
2017-10-24T09:14:48.072Z,98264.40
2017-10-24T09:17:37.272Z,98263.66
2017-10-24T09:20:05.920Z,98276.20
2017-10-24T09:22:33.431Z,98277.31
2017-10-24T09:25:00.950Z,98278.28
2017-10-24T09:27:29.636Z,98272.09
2017-10-24T09:29:57.157Z,98270.73
2017-10-24T09:32:28.200Z,98258.52
2017-10-24T09:34:55.743Z,98263.23
2017-10-24T09:37:23.275Z,98262.70
2017-10-24T09:39:51.007Z,98268.22
2017-10-24T09:42:18.515Z,98263.66
2017-10-24T09:44:46.035Z,98264.16
2017-10-24T09:47:13.583Z,98259.44
2017-10-24T09:49:41.099Z,98263.31
2017-10-24T09:52:08.611Z,98266.05
2017-10-24T09:54:43.128Z,98264.92
2017-10-24T09:57:10.644Z,98266.02
2017-10-24T09:59:38.167Z,98264.59
2017-10-24T10:02:05.735Z,98260.64
2017-10-24T10:04:33.262Z,98261.73
2017-10-24T10:07:10.698Z,98261.38
2017-10-24T10:09:38.220Z,98261.78
2017-10-24T10:12:09.668Z,98264.95
2017-10-24T10:14:37.424Z,98262.27
2017-10-24T10:17:04.987Z,98263.08
2017-10-24T10:19:32.503Z,98257.75
2017-10-24T10:22:00.291Z,98251.62
2017-10-24T10:24:43.658Z,98239.58
2017-10-24T10:27:11.237Z,98232.95
2017-10-24T10:29:38.760Z,98236.44
2017-10-24T10:32:06.316Z,98238.81
2017-10-24T10:34:34.078Z,98236.02
2017-10-24T10:37:02.557Z,98235.57
2017-10-24T10:39:30.124Z,98237.56
2017-10-24T10:41:57.860Z,98239.92
2017-10-24T10:44:25.378Z,98235.73
2017-10-24T10:46:52.899Z,98225.15
2017-10-24T10:49:20.454Z,98229.05
2017-10-24T10:51:48.014Z,98228.96
2017-10-24T10:54:15.575Z,98230.55
2017-10-24T10:56:43.320Z,98237.98
2017-10-24T10:59:10.832Z,98224.95
2017-10-24T11:01:38.354Z,98225.02
2017-10-24T11:04:06.220Z,98232.78
2017-10-24T11:06:33.731Z,98233.66
2017-10-24T11:09:01.256Z,98222.92
2017-10-24T11:11:28.990Z,98228.98
2017-10-24T11:13:56.561Z,98228.23
2017-10-24T11:16:24.117Z,98214.34
2017-10-24T11:18:51.780Z,98219.72
2017-10-24T11:21:19.339Z,98211.97
2017-10-24T11:23:46.863Z,98206.61
2017-10-24T11:26:14.542Z,98211.01
2017-10-24T11:28:42.065Z,98213.19
2017-10-24T11:31:09.583Z,98197.55
2017-10-24T11:33:37.502Z,98193.08
2017-10-24T11:36:05.204Z,98195.61
2017-10-24T11:38:32.795Z,98186.90
2017-10-24T11:41:00.361Z,98179.05
2017-10-24T11:43:27.893Z,98172.58
2017-10-24T11:45:55.437Z,98168.02
2017-10-24T11:48:23.205Z,98166.50
2017-10-24T11:50:50.763Z,98168.87
2017-10-24T11:53:18.324Z,98170.78
2017-10-24T11:55:46.291Z,98171.59
2017-10-24T11:58:13.870Z,98166.78
2017-10-24T12:00:41.412Z,98167.56
2017-10-24T12:03:09.173Z,98161.70
2017-10-24T12:05:37.655Z,98167.44
2017-10-24T12:08:05.214Z,98161.88
2017-10-24T12:10:33.180Z,98156.06
2017-10-24T12:13:00.692Z,98159.09
2017-10-24T12:15:28.210Z,98157.41
2017-10-24T12:17:56.151Z,98146.52
2017-10-24T12:20:23.676Z,98144.70
2017-10-24T12:22:51.196Z,98146.19
2017-10-24T12:25:18.928Z,98148.40
2017-10-24T12:27:46.459Z,98158.10
2017-10-24T12:30:13.979Z,98168.66
2017-10-24T12:32:41.643Z,98160.98
2017-10-24T12:35:09.171Z,98160.69
2017-10-24T12:37:36.716Z,98157.26
2017-10-24T12:40:04.489Z,98160.44
2017-10-24T12:42:46.930Z,98160.49
2017-10-24T12:45:16.228Z,98157.25
2017-10-24T12:47:43.777Z,98164.58
2017-10-24T12:50:16.040Z,98159.03
2017-10-24T12:52:43.665Z,98151.37
2017-10-24T12:55:11.183Z,98151.16
2017-10-24T12:57:54.582Z,98142.75
2017-10-24T13:00:22.110Z,98141.44
2017-10-24T13:02:50.030Z,98136.97
2017-10-24T13:05:18.276Z,98136.86
2017-10-24T13:07:45.861Z,98129.80
2017-10-24T13:10:13.403Z,98132.22
2017-10-24T13:12:41.070Z,98134.55
2017-10-24T13:15:08.631Z,98123.70
2017-10-24T13:17:36.151Z,98129.19
2017-10-24T13:20:04.157Z,98129.05
2017-10-24T13:22:31.819Z,98123.83
2017-10-24T13:24:59.396Z,98113.92
2017-10-24T13:27:27.115Z,98124.52
2017-10-24T13:29:54.702Z,98129.72
2017-10-24T13:32:22.451Z,98132.08
2017-10-24T13:34:50.334Z,98135.06
2017-10-24T13:37:17.892Z,98133.77
2017-10-24T13:39:45.679Z,98133.83
2017-10-24T13:42:13.399Z,98134.36
2017-10-24T13:44:40.931Z,98131.98
2017-10-24T13:47:08.640Z,98129.52
2017-10-24T13:49:36.403Z,98128.14
2017-10-24T13:52:04.065Z,98130.23
2017-10-24T13:54:31.726Z,98126.75
2017-10-24T13:56:59.387Z,98127.70
2017-10-24T13:59:27.051Z,98126.30
2017-10-24T14:01:54.590Z,98130.64
2017-10-24T14:04:28.074Z,98129.36
2017-10-24T14:07:01.176Z,98131.91
2017-10-24T14:09:34.692Z,98129.33
2017-10-24T14:12:02.254Z,98132.17
2017-10-24T14:14:29.812Z,98137.47
2017-10-24T14:16:57.658Z,98129.22
2017-10-24T14:19:25.238Z,98132.86
2017-10-24T14:21:52.909Z,98132.66
2017-10-24T14:24:20.773Z,98134.44
2017-10-24T14:26:48.424Z,98137.09
2017-10-24T14:29:16.081Z,98141.94
2017-10-24T14:31:44.035Z,98139.06
2017-10-24T14:34:11.735Z,98139.81
2017-10-24T14:36:39.483Z,98141.41
2017-10-24T14:39:07.370Z,98134.89
2017-10-24T14:41:34.924Z,98141.55
2017-10-24T14:44:03.288Z,98133.42
2017-10-24T14:46:31.032Z,98147.95
2017-10-24T14:48:58.560Z,98147.97
2017-10-24T14:51:26.277Z,98142.28
2017-10-24T14:53:54.033Z,98152.77
2017-10-24T14:56:21.707Z,98149.02
2017-10-24T14:58:49.253Z,98143.66
2017-10-24T15:01:17.018Z,98147.62
2017-10-24T15:03:44.567Z,98150.45
2017-10-24T15:06:12.264Z,98147.70
2017-10-24T15:08:40.004Z,98146.45
2017-10-24T15:11:07.573Z,98143.13
2017-10-24T15:13:35.233Z,98143.33
2017-10-24T15:16:03.184Z,98143.23
2017-10-24T15:18:30.752Z,98144.19
2017-10-24T15:20:58.312Z,98145.32
2017-10-24T15:23:26.060Z,98143.25
2017-10-24T15:25:53.636Z,98148.11
2017-10-24T15:28:21.295Z,98148.30
2017-10-24T15:30:49.365Z,98159.88
2017-10-24T15:33:16.940Z,98162.30
2017-10-24T15:35:44.499Z,98162.68
2017-10-24T15:38:12.106Z,98158.61
2017-10-24T15:40:39.808Z,98162.65
2017-10-24T15:43:07.468Z,98159.98
2017-10-24T15:45:35.333Z,98162.83
2017-10-24T15:48:02.883Z,98171.20
2017-10-24T15:50:30.648Z,98162.73
2017-10-24T15:52:58.675Z,98169.02
2017-10-24T15:55:26.499Z,98172.86
2017-10-24T15:57:54.768Z,98172.36
2017-10-24T16:00:22.639Z,98174.41
2017-10-24T16:02:50.910Z,98171.30
2017-10-24T16:05:18.782Z,98176.60
2017-10-24T16:07:46.950Z,98176.52
2017-10-24T16:10:14.816Z,98176.88
2017-10-24T16:12:42.597Z,98182.06
2017-10-24T16:15:10.856Z,98179.12
2017-10-24T16:17:38.627Z,98177.58
2017-10-24T16:20:06.287Z,98176.72
2017-10-24T16:22:33.950Z,98182.38
2017-10-24T16:25:02.527Z,98187.69
2017-10-24T16:27:30.291Z,98188.16
2017-10-24T16:29:58.361Z,98189.04
2017-10-24T16:32:26.011Z,98182.88
2017-10-24T16:34:53.582Z,98179.91
2017-10-24T16:37:21.654Z,98180.58
2017-10-24T16:39:49.198Z,98180.34
2017-10-24T16:42:16.883Z,98182.28
2017-10-24T16:44:44.954Z,98176.20
2017-10-24T16:47:12.914Z,98175.88
2017-10-24T16:49:41.011Z,98171.14
2017-10-24T16:52:08.854Z,98174.72
2017-10-24T16:54:36.518Z,98185.36
2017-10-24T16:57:04.584Z,98184.96
2017-10-24T16:59:32.453Z,98183.55
2017-10-24T17:02:00.111Z,98181.37
2017-10-24T17:04:27.774Z,98176.14
2017-10-24T17:06:55.959Z,98182.22
2017-10-24T17:09:23.561Z,98186.52
2017-10-24T17:11:51.270Z,98182.49
2017-10-24T17:14:19.381Z,98183.80
2017-10-24T17:16:47.119Z,98188.44
2017-10-24T17:19:14.867Z,98190.91
2017-10-24T17:21:42.941Z,98195.22
2017-10-24T17:24:10.861Z,98192.21
2017-10-24T17:26:38.586Z,98186.67
2017-10-24T17:29:06.641Z,98181.61
2017-10-24T17:31:34.411Z,98173.23
2017-10-24T17:34:02.150Z,98183.78
2017-10-24T17:36:30.054Z,98182.95
2017-10-24T17:38:57.811Z,98178.91
2017-10-24T17:41:25.564Z,98185.59
2017-10-24T17:43:53.429Z,98189.71
2017-10-24T17:46:21.296Z,98187.76
2017-10-24T17:48:49.079Z,98185.48
2017-10-24T17:51:16.824Z,98183.35
2017-10-24T17:53:44.785Z,98187.63
2017-10-24T17:56:13.378Z,98189.73
2017-10-24T17:58:41.243Z,98187.18
2017-10-24T18:01:09.033Z,98186.59
2017-10-24T18:03:36.769Z,98185.73
2017-10-24T18:06:05.456Z,98188.16
2017-10-24T18:08:33.322Z,98190.58
2017-10-24T18:11:01.188Z,98184.61
2017-10-24T18:13:28.785Z,98183.62
2017-10-24T18:15:57.124Z,98178.14
2017-10-24T18:18:24.902Z,98183.07
2017-10-24T18:20:53.677Z,98179.99
2017-10-24T18:23:21.460Z,98175.33
2017-10-24T18:25:49.718Z,98175.64
2017-10-24T18:28:17.380Z,98176.66
2017-10-24T18:30:45.156Z,98174.17
2017-10-24T18:33:13.022Z,98166.78
2017-10-24T18:35:41.901Z,98173.58
2017-10-24T18:38:09.887Z,98171.65
2017-10-24T18:40:37.956Z,98171.52
2017-10-24T18:43:06.527Z,98167.98
2017-10-24T18:45:34.303Z,98172.56
2017-10-24T18:48:02.167Z,98164.69
2017-10-24T18:50:31.307Z,98164.28
2017-10-24T18:52:59.042Z,98169.84
2017-10-24T18:55:26.878Z,98175.19
2017-10-24T18:57:55.074Z,98172.91
2017-10-24T19:00:22.778Z,98166.81
2017-10-24T19:02:50.396Z,98170.95
2017-10-24T19:05:18.247Z,98175.11
2017-10-24T19:07:45.982Z,98179.13
2017-10-24T19:10:13.781Z,98178.48
2017-10-24T19:12:41.851Z,98180.88
2017-10-24T19:15:09.707Z,98176.31
2017-10-24T19:17:38.086Z,98178.22
2017-10-24T19:20:05.855Z,98178.27
2017-10-24T19:22:33.613Z,98178.42
2017-10-24T19:25:02.197Z,98177.58
2017-10-24T19:27:30.165Z,98170.33
2017-10-24T19:29:58.134Z,98170.22
2017-10-24T19:32:26.001Z,98169.41
2017-10-24T19:34:53.990Z,98170.32
2017-10-24T19:37:22.756Z,98165.55
2017-10-24T19:39:50.993Z,98167.69
2017-10-24T19:42:18.912Z,98167.42
2017-10-24T19:44:47.599Z,98168.34
2017-10-24T19:47:15.450Z,98160.17
2017-10-24T19:49:43.524Z,98151.83
2017-10-24T19:52:11.313Z,98151.98
2017-10-24T19:54:39.060Z,98149.91
2017-10-24T19:57:07.122Z,98157.25
2017-10-24T19:59:35.254Z,98160.05
2017-10-24T20:02:03.222Z,98162.99
2017-10-24T20:04:31.044Z,98155.44
2017-10-24T20:06:58.798Z,98156.20
2017-10-24T20:09:26.677Z,98161.72
2017-10-24T20:11:55.446Z,98160.73
2017-10-24T20:14:24.143Z,98160.67
2017-10-24T20:16:51.910Z,98162.59
2017-10-24T20:19:19.863Z,98168.87
2017-10-24T20:21:47.650Z,98159.31
2017-10-24T20:24:16.223Z,98171.54
2017-10-24T20:26:44.385Z,98169.36
2017-10-24T20:29:11.984Z,98169.07
2017-10-24T20:31:40.014Z,98168.62
2017-10-24T20:34:08.002Z,98172.55
2017-10-24T20:36:36.657Z,98170.27
2017-10-24T20:39:04.636Z,98169.14
2017-10-24T20:41:32.401Z,98174.08
2017-10-24T20:44:00.177Z,98165.77
2017-10-24T20:46:28.033Z,98171.05
2017-10-24T20:48:56.010Z,98169.13
2017-10-24T20:51:23.866Z,98170.66
2017-10-24T20:53:51.642Z,98169.93
2017-10-24T20:56:19.804Z,98164.01
2017-10-24T20:58:47.566Z,98162.08
2017-10-24T21:01:15.127Z,98157.92
2017-10-24T21:03:43.199Z,98158.18
2017-10-24T21:06:10.965Z,98157.55
2017-10-24T21:08:38.522Z,98152.23
2017-10-24T21:11:06.605Z,98155.50
2017-10-24T21:13:34.358Z,98156.60
2017-10-24T21:16:02.221Z,98154.95
2017-10-24T21:18:29.940Z,98151.38
2017-10-24T21:20:57.663Z,98149.66
2017-10-24T21:23:25.221Z,98146.55
2017-10-24T21:25:53.095Z,98144.88
2017-10-24T21:28:20.837Z,98144.23
2017-10-24T21:30:48.388Z,98139.84
2017-10-24T21:33:16.366Z,98137.70
2017-10-24T21:35:43.923Z,98146.22
2017-10-24T21:38:11.443Z,98141.92
2017-10-24T21:40:38.987Z,98144.28
2017-10-24T21:43:06.506Z,98144.84
2017-10-24T21:45:34.058Z,98147.42
2017-10-24T21:48:01.619Z,98144.59
2017-10-24T21:50:29.177Z,98148.69
2017-10-24T21:52:56.687Z,98150.41
2017-10-24T21:55:24.379Z,98150.28
2017-10-24T21:57:51.901Z,98147.67
2017-10-24T22:03:19.737Z,98145.95
2017-10-24T22:05:47.503Z,98144.81
2017-10-24T22:08:15.065Z,98144.86
2017-10-24T22:10:42.622Z,98145.58
2017-10-24T22:13:10.403Z,98141.53
2017-10-24T22:15:37.915Z,98138.28
2017-10-24T22:18:05.433Z,98141.89
2017-10-24T22:20:33.145Z,98143.53
2017-10-24T22:23:00.664Z,98141.55
2017-10-24T22:25:28.183Z,98144.03
2017-10-24T22:27:56.149Z,98138.03
2017-10-24T22:30:23.710Z,98141.33
2017-10-24T22:32:51.349Z,98141.75
2017-10-24T22:35:18.915Z,98146.07
2017-10-24T22:37:47.372Z,98144.84
2017-10-24T22:40:14.881Z,98149.22
2017-10-24T22:42:42.630Z,98149.59
2017-10-24T22:45:10.158Z,98147.32
2017-10-24T22:47:37.703Z,98149.54
2017-10-24T22:50:05.701Z,98144.63
2017-10-24T22:52:33.220Z,98148.80
2017-10-24T22:55:00.836Z,98145.47
2017-10-24T22:57:28.703Z,98142.88
2017-10-24T22:59:56.263Z,98144.16
2017-10-24T23:02:23.821Z,98152.59
2017-10-24T23:04:51.695Z,98156.84
2017-10-24T23:07:19.252Z,98149.36
2017-10-24T23:09:46.809Z,98140.18
2017-10-24T23:12:14.368Z,98148.01
2017-10-24T23:14:41.903Z,98138.09
2017-10-24T23:17:09.418Z,98136.91
2017-10-24T23:19:36.971Z,98139.79
2017-10-24T23:22:04.497Z,98136.94
2017-10-24T23:24:32.058Z,98130.20
2017-10-24T23:26:59.821Z,98132.36
2017-10-24T23:29:27.335Z,98132.36
2017-10-24T23:31:54.852Z,98129.22
2017-10-24T23:34:22.405Z,98128.83
2017-10-24T23:36:49.923Z,98136.16
2017-10-24T23:39:17.447Z,98133.69
2017-10-24T23:41:45.135Z,98134.08
2017-10-24T23:44:12.666Z,98138.07
2017-10-24T23:46:40.179Z,98139.05
2017-10-24T23:49:07.747Z,98135.23
2017-10-24T23:51:36.129Z,98131.91
2017-10-24T23:54:04.609Z,98128.11
2017-10-24T23:56:32.373Z,98127.52
2017-10-24T23:58:59.937Z,98122.83
